Time;durP1;ratioP1;P1;durP2;ratioP2;P2;SDS_P1;SDS_P2;PMS_P1;PMS_P2;Temp;Humidity;BMP_temperature;BMP_pressure;BME280_temperature;BME280_humidity;BME280_pressure;Samples;Min_cycle;Max_cycle;Signal;HPM_P1;HPM_P2
2021/05/30 00:00:17;;;;;;;;;;;;;;;8.24;71.52;101689.61;1647026;85;20877;-74
2021/05/30 00:02:43;;;;;;;;;;;;;;;8.25;71.51;101696.92;1653164;85;20264;-74
2021/05/30 00:05:12;;;;;;;;;;;;;;;8.24;71.59;101692.19;1633407;85;20265;-74
2021/05/30 00:07:38;;;;;;;;;;;;;;;8.23;71.54;101690.88;1654758;85;20278;-74
2021/05/30 00:10:06;;;;;;;;;;;;;;;8.22;71.57;101688.73;1632281;85;20269;-74
2021/05/30 00:12:33;;;;;;;;;;;;;;;8.21;71.57;101690.87;1644334;85;20529;-74
2021/05/30 00:15:00;;;;;;;;;;;;;;;8.19;71.58;101696.42;1655818;85;20601;-74
2021/05/30 00:17:26;;;;;;;;;;;;;;;8.17;71.62;101698.12;1639788;85;20254;-74
2021/05/30 00:19:52;;;;;;;;;;;;;;;8.17;71.61;101695.55;1642942;85;20326;-74
2021/05/30 00:22:18;;;;;;;;;;;;;;;8.15;71.66;101697.23;1643253;87;20249;-74
2021/05/30 00:24:45;;;;;;;;;;;;;;;8.17;71.73;101694.25;1634309;85;20281;-74
2021/05/30 00:27:10;;;;;;;;;;;;;;;8.18;71.75;101689.55;1642817;85;20218;-74
2021/05/30 00:29:36;;;;;;;;;;;;;;;8.19;71.73;101691.70;1633140;85;20517;-74
2021/05/30 00:32:08;;;;;;;;;;;;;;;8.18;71.70;101695.98;1660103;85;20291;-74
2021/05/30 00:34:34;;;;;;;;;;;;;;;8.17;71.70;101699.41;1643260;85;20210;-74
2021/05/30 00:37:00;;;;;;;;;;;;;;;8.14;71.74;101700.66;1659764;85;20282;-75
2021/05/30 00:39:26;;;;;;;;;;;;;;;8.16;71.76;101694.23;1634786;85;20557;-75
2021/05/30 00:41:52;;;;;;;;;;;;;;;8.17;71.84;101694.68;1651587;85;21542;-74
2021/05/30 00:44:27;;;;;;;;;;;;;;;8.18;71.82;101693.41;1663339;84;20683;-74
2021/05/30 00:46:54;;;;;;;;;;;;;;;8.20;71.92;101693.42;1670347;84;21391;-74
2021/05/30 00:49:21;;;;;;;;;;;;;;;8.22;71.88;101692.59;1661198;85;21106;-74
2021/05/30 00:51:47;;;;;;;;;;;;;;;8.25;71.91;101695.20;1656667;85;20220;-75
2021/05/30 00:54:14;;;;;;;;;;;;;;;8.25;71.87;101699.49;1651245;85;20253;-74
2021/05/30 00:56:41;;;;;;;;;;;;;;;8.26;71.94;101696.07;1658283;85;20338;-74
2021/05/30 00:59:08;;;;;;;;;;;;;;;8.26;71.94;101690.49;1649624;85;20148;-74
2021/05/30 01:01:34;;;;;;;;;;;;;;;8.28;71.93;101692.66;1659529;85;20198;-74
2021/05/30 01:04:00;;;;;;;;;;;;;;;8.30;71.97;101692.25;1659939;85;20154;-74
2021/05/30 01:06:28;;;;;;;;;;;;;;;8.29;71.92;101694.39;1662269;85;20229;-74
2021/05/30 01:08:54;;;;;;;;;;;;;;;8.29;72.02;101689.23;1660587;85;20165;-74
2021/05/30 01:11:26;;;;;;;;;;;;;;;8.34;72.09;101689.70;1661024;85;20191;-74
2021/05/30 01:13:53;;;;;;;;;;;;;;;8.35;72.02;101692.30;1664873;85;20202;-74
2021/05/30 01:16:20;;;;;;;;;;;;;;;8.33;72.06;101688.84;1668079;85;20194;-74
2021/05/30 01:18:49;;;;;;;;;;;;;;;8.35;72.12;101688.86;1655517;85;20170;-74
2021/05/30 01:21:15;;;;;;;;;;;;;;;8.38;72.15;101688.89;1664526;85;20197;-74
2021/05/30 01:23:41;;;;;;;;;;;;;;;8.41;72.16;101692.37;1669873;85;20193;-74
2021/05/30 01:26:08;;;;;;;;;;;;;;;8.42;72.17;101685.08;1662774;85;20195;-74
2021/05/30 01:28:34;;;;;;;;;;;;;;;8.44;72.17;101679.94;1671001;85;20181;-74
2021/05/30 01:31:00;;;;;;;;;;;;;;;8.43;72.12;101685.52;1665975;85;20164;-74
2021/05/30 01:33:29;;;;;;;;;;;;;;;8.41;72.16;101692.37;1658850;85;20142;-74
2021/05/30 01:35:55;;;;;;;;;;;;;;;8.41;72.14;101701.81;1667590;85;20174;-74
2021/05/30 01:38:21;;;;;;;;;;;;;;;8.37;72.12;101702.62;1659566;85;20182;-74
2021/05/30 01:40:47;;;;;;;;;;;;;;;8.36;72.18;101697.89;1667564;85;20177;-74
2021/05/30 01:43:13;;;;;;;;;;;;;;;8.32;72.09;101697.84;1654659;85;20164;-74
2021/05/30 01:45:40;;;;;;;;;;;;;;;8.29;72.21;101696.97;1660208;85;20154;-74
2021/05/30 01:48:07;;;;;;;;;;;;;;;8.28;72.22;101704.26;1657216;85;21420;-74
2021/05/30 01:50:34;;;;;;;;;;;;;;;8.21;72.17;101696.02;1654232;85;20142;-74
2021/05/30 01:53:06;;;;;;;;;;;;;;;8.21;72.25;101699.02;1669218;85;20142;-74
2021/05/30 01:55:31;;;;;;;;;;;;;;;8.16;72.24;101695.53;1647284;84;20173;-74
2021/05/30 01:57:58;;;;;;;;;;;;;;;8.11;72.23;101701.91;1641649;84;20297;-75
2021/05/30 02:00:25;;;;;;;;;;;;;;;8.09;72.29;101703.61;1654899;85;20286;-75
2021/05/30 02:02:55;;;;;;;;;;;;;;;8.07;72.31;101701.44;1644944;85;20446;-75
2021/05/30 02:05:22;;;;;;;;;;;;;;;8.04;72.23;101703.11;1656954;85;20195;-74
2021/05/30 02:07:50;;;;;;;;;;;;;;;8.01;72.31;101699.21;1669560;85;20351;-74
2021/05/30 02:10:22;;;;;;;;;;;;;;;7.96;72.30;101703.88;1658265;85;20158;-74
2021/05/30 02:12:52;;;;;;;;;;;;;;;7.92;72.32;101706.40;1664313;85;20368;-74
2021/05/30 02:15:19;;;;;;;;;;;;;;;7.87;72.34;101703.77;1655191;85;20186;-74
2021/05/30 02:17:45;;;;;;;;;;;;;;;7.85;72.36;101721.33;1659558;85;20230;-74
2021/05/30 02:20:12;;;;;;;;;;;;;;;7.81;72.35;101719.56;1647571;85;21066;-74
2021/05/30 02:22:38;;;;;;;;;;;;;;;7.77;72.34;101719.97;1659466;85;20329;-74
2021/05/30 02:25:05;;;;;;;;;;;;;;;7.72;72.35;101718.19;1671863;85;20186;-74
2021/05/30 02:27:31;;;;;;;;;;;;;;;7.68;72.39;101712.55;1654881;85;20264;-74
2021/05/30 02:29:57;;;;;;;;;;;;;;;7.63;72.38;101709.48;1653175;85;20289;-74
2021/05/30 02:32:23;;;;;;;;;;;;;;;7.59;72.42;101717.15;1657339;85;20740;-74
2021/05/30 02:34:49;;;;;;;;;;;;;;;7.54;72.43;101710.65;1657894;85;20335;-74
2021/05/30 02:37:17;;;;;;;;;;;;;;;7.52;72.43;101709.77;1652129;85;20412;-74
2021/05/30 02:39:45;;;;;;;;;;;;;;;7.48;72.42;101722.14;1654427;85;20158;-74
2021/05/30 02:42:11;;;;;;;;;;;;;;;7.44;72.44;101724.23;1660478;85;20262;-74
2021/05/30 02:44:38;;;;;;;;;;;;;;;7.43;72.46;101725.07;1669696;85;20233;-74
2021/05/30 02:47:04;;;;;;;;;;;;;;;7.41;72.41;101733.61;1625993;86;20416;-74
2021/05/30 02:49:33;;;;;;;;;;;;;;;7.34;72.39;101735.64;1643759;85;20298;-74
2021/05/30 02:52:00;;;;;;;;;;;;;;;7.31;72.47;101737.75;1661299;85;20337;-74
2021/05/30 02:54:26;;;;;;;;;;;;;;;7.27;72.44;101733.01;1649240;85;20153;-74
2021/05/30 02:56:52;;;;;;;;;;;;;;;7.23;72.51;101735.09;1655064;86;20175;-74
2021/05/30 02:59:18;;;;;;;;;;;;;;;7.22;72.54;101733.36;1671806;85;20194;-74
2021/05/30 03:01:44;;;;;;;;;;;;;;;7.21;72.54;101740.62;1663167;85;20170;-74
2021/05/30 03:04:10;;;;;;;;;;;;;;;7.19;72.54;101744.02;1662285;85;20150;-74
2021/05/30 03:06:36;;;;;;;;;;;;;;;7.17;72.58;101741.42;1663416;85;20206;-74
2021/05/30 03:09:02;;;;;;;;;;;;;;;7.16;72.52;101750.40;1663032;85;20154;-74
2021/05/30 03:11:28;;;;;;;;;;;;;;;7.12;72.60;101753.34;1650524;85;20473;-74
2021/05/30 03:13:57;;;;;;;;;;;;;;;7.09;72.65;101750.72;1661764;85;20502;-74
2021/05/30 03:16:24;;;;;;;;;;;;;;;7.09;72.75;101757.15;1648988;86;20150;-74
2021/05/30 03:18:50;;;;;;;;;;;;;;;7.11;72.73;101759.33;1668177;85;20804;-74
2021/05/30 03:21:17;;;;;;;;;;;;;;;7.11;72.73;101764.47;1669863;85;20185;-74
2021/05/30 03:23:43;;;;;;;;;;;;;;;7.10;72.71;101760.59;1657166;86;20170;-74
2021/05/30 03:26:10;;;;;;;;;;;;;;;7.09;72.67;101768.72;1660926;85;20174;-74
2021/05/30 03:28:37;;;;;;;;;;;;;;;7.06;72.70;101765.23;1673628;85;20162;-74
2021/05/30 03:31:03;;;;;;;;;;;;;;;7.06;72.74;101767.38;1657812;85;20190;-74
2021/05/30 03:33:32;;;;;;;;;;;;;;;7.05;72.78;101771.22;1660170;85;20151;-74
2021/05/30 03:36:01;;;;;;;;;;;;;;;7.01;72.69;101772.87;1653349;85;20711;-74
2021/05/30 03:38:28;;;;;;;;;;;;;;;7.03;72.85;101775.47;1663189;85;20186;-74
2021/05/30 03:41:11;;;;;;;;;;;;;;;7.08;72.96;101771.27;1659873;85;20191;-74
2021/05/30 03:43:28;;;;;;;;;;;;;;;7.09;72.89;101777.72;1675607;84;20154;-75
2021/05/30 03:45:54;;;;;;;;;;;;;;;7.13;73.02;101779.51;1663198;85;20160;-74
2021/05/30 03:48:29;;;;;;;;;;;;;;;7.19;73.11;101780.90;1662318;85;20213;-74
2021/05/30 03:50:55;;;;;;;;;;;;;;;7.26;73.16;101780.16;1662147;85;21069;-74
2021/05/30 03:53:21;;;;;;;;;;;;;;;7.35;73.22;101776.83;1668004;85;20413;-74
2021/05/30 03:55:48;;;;;;;;;;;;;;;7.42;73.16;101785.52;1639065;85;20608;-74
2021/05/30 03:58:15;;;;;;;;;;;;;;;7.49;73.19;101788.21;1640608;85;20394;-74
2021/05/30 04:00:41;;;;;;;;;;;;;;;7.54;73.17;101785.29;1631241;87;20266;-74
2021/05/30 04:03:14;;;;;;;;;;;;;;;7.61;73.23;101792.68;1643505;86;20591;-75
2021/05/30 04:05:40;;;;;;;;;;;;;;;7.70;73.25;101787.67;1658071;86;20331;-75
2021/05/30 04:08:06;;;;;;;;;;;;;;;7.76;73.18;101791.62;1634560;86;20775;-75
2021/05/30 04:10:32;;;;;;;;;;;;;;;7.82;73.20;101783.09;1631978;87;20192;-75
2021/05/30 04:12:58;;;;;;;;;;;;;;;7.89;73.24;101783.20;1632387;87;20231;-74
2021/05/30 04:15:24;;;;;;;;;;;;;;;7.97;73.25;101779.44;1641780;85;20215;-74
2021/05/30 04:17:52;;;;;;;;;;;;;;;8.08;73.38;101783.02;1659050;86;20202;-74
2021/05/30 04:20:20;;;;;;;;;;;;;;;8.17;73.25;101783.14;1641142;85;20192;-74
2021/05/30 04:22:46;;;;;;;;;;;;;;;8.27;73.24;101781.55;1634693;86;20394;-74
2021/05/30 04:25:14;;;;;;;;;;;;;;;8.39;73.30;101785.55;1636099;86;20268;-74
2021/05/30 04:27:41;;;;;;;;;;;;;;;8.48;73.28;101788.24;1639571;86;20390;-74
2021/05/30 04:30:09;;;;;;;;;;;;;;;8.54;73.14;101792.60;1632674;87;20552;-75
2021/05/30 04:32:36;;;;;;;;;;;;;;;8.68;73.29;101794.05;1637074;86;20278;-75
2021/05/30 04:35:03;;;;;;;;;;;;;;;8.85;73.40;101791.19;1643567;85;20609;-75
2021/05/30 04:37:29;;;;;;;;;;;;;;;9.04;73.40;101794.38;1632283;86;20251;-74
2021/05/30 04:39:57;;;;;;;;;;;;;;;9.15;73.12;101795.34;1632088;87;20497;-74
2021/05/30 04:42:23;;;;;;;;;;;;;;;9.19;73.12;101796.23;1632297;86;20299;-74
2021/05/30 04:44:49;;;;;;;;;;;;;;;9.25;73.10;101798.45;1651013;86;20226;-74
2021/05/30 04:47:16;;;;;;;;;;;;;;;9.28;73.02;101796.31;1656150;86;20258;-75
2021/05/30 04:49:42;;;;;;;;;;;;;;;9.27;72.99;101798.03;1638411;86;20192;-74
2021/05/30 04:52:10;;;;;;;;;;;;;;;9.32;73.09;101795.92;1650179;86;20311;-74
2021/05/30 04:54:42;;;;;;;;;;;;;;;9.37;73.15;101796.78;1651392;85;20202;-74
2021/05/30 04:57:09;;;;;;;;;;;;;;;9.50;73.22;101791.73;1634317;86;20244;-74
2021/05/30 04:59:35;;;;;;;;;;;;;;;9.72;73.31;101792.75;1649253;86;20300;-74
2021/05/30 05:02:01;;;;;;;;;;;;;;;10.18;73.43;101791.68;1650384;85;20587;-74
2021/05/30 05:04:27;;;;;;;;;;;;;;;10.77;73.62;101794.91;1645971;85;20240;-74
2021/05/30 05:06:53;;;;;;;;;;;;;;;11.42;73.71;101790.19;1631338;86;20173;-74
2021/05/30 05:09:19;;;;;;;;;;;;;;;12.11;73.48;101786.57;1636805;85;20158;-74
2021/05/30 05:11:45;;;;;;;;;;;;;;;12.77;73.10;101781.90;1641832;85;20202;-74
2021/05/30 05:14:12;;;;;;;;;;;;;;;13.48;72.92;101781.78;1642507;85;20218;-74
2021/05/30 05:16:38;;;;;;;;;;;;;;;14.14;72.50;101787.09;1637494;85;20152;-74
2021/05/30 05:19:04;;;;;;;;;;;;;;;14.74;72.40;101781.97;1649787;86;20181;-74
2021/05/30 05:21:30;;;;;;;;;;;;;;;15.16;71.95;101777.83;1646711;86;20222;-74
2021/05/30 05:23:57;;;;;;;;;;;;;;;15.64;71.50;101780.92;1658182;86;20171;-74
2021/05/30 05:26:23;;;;;;;;;;;;;;;16.00;71.24;101784.59;1658194;86;21040;-74
2021/05/30 05:28:50;;;;;;;;;;;;;;;16.50;71.35;101779.60;1657494;85;20181;-74
2021/05/30 05:31:16;;;;;;;;;;;;;;;17.09;71.16;101788.69;1655038;85;20179;-74
2021/05/30 05:33:43;;;;;;;;;;;;;;;17.45;70.56;101791.25;1656691;85;20717;-75
2021/05/30 05:36:12;;;;;;;;;;;;;;;17.85;70.92;101781.91;1656076;86;20236;-75
2021/05/30 05:38:38;;;;;;;;;;;;;;;18.28;70.59;101785.91;1647723;86;20324;-75
2021/05/30 05:41:04;;;;;;;;;;;;;;;18.71;70.47;101788.12;1644545;85;21546;-74
2021/05/30 05:43:32;;;;;;;;;;;;;;;19.20;70.21;101790.47;1651557;85;20631;-74
2021/05/30 05:45:58;;;;;;;;;;;;;;;19.55;69.91;101789.28;1641719;86;20218;-74
2021/05/30 05:48:27;;;;;;;;;;;;;;;19.92;69.68;101791.45;1641227;87;20247;-74
2021/05/30 05:50:56;;;;;;;;;;;;;;;20.09;69.24;101793.01;1628162;87;20224;-75
2021/05/30 05:53:22;;;;;;;;;;;;;;;20.25;69.50;101790.67;1624608;87;20274;-74
2021/05/30 05:55:48;;;;;;;;;;;;;;;20.32;69.00;101788.19;1642489;87;20212;-74
2021/05/30 05:58:14;;;;;;;;;;;;;;;20.48;68.95;101791.98;1643235;87;21067;-75
2021/05/30 06:00:40;;;;;;;;;;;;;;;20.49;69.15;101793.69;1643501;87;20181;-74
2021/05/30 06:03:06;;;;;;;;;;;;;;;20.85;68.84;101787.88;1644513;86;20605;-75
2021/05/30 06:05:34;;;;;;;;;;;;;;;21.21;68.94;101789.48;1645611;86;20298;-75
2021/05/30 06:08:00;;;;;;;;;;;;;;;21.60;68.35;101785.63;1646398;85;20218;-74
2021/05/30 06:10:26;;;;;;;;;;;;;;;21.92;68.20;101787.67;1639599;87;20238;-74
2021/05/30 06:13:01;;;;;;;;;;;;;;;22.26;68.15;101788.36;1637992;85;20721;-74
2021/05/30 06:15:28;;;;;;;;;;;;;;;22.62;67.80;101794.98;1605085;85;20202;-75
2021/05/30 06:18:04;;;;;;;;;;;;;;;22.75;67.25;101794.79;1639626;86;20302;-76
2021/05/30 06:20:28;;;;;;;;;;;;;;;22.66;66.91;101797.87;1641309;85;20230;-77
2021/05/30 06:22:55;;;;;;;;;;;;;;;22.69;67.23;101791.59;1641285;87;20742;-76
2021/05/30 06:25:22;;;;;;;;;;;;;;;22.86;67.07;101793.45;1642950;85;20569;-76
2021/05/30 06:27:50;;;;;;;;;;;;;;;22.80;66.55;101799.87;1647151;85;20586;-76
2021/05/30 06:30:18;;;;;;;;;;;;;;;22.70;66.67;101801.21;1643873;85;20609;-77
2021/05/30 06:32:44;;;;;;;;;;;;;;;22.53;66.06;101802.47;1644909;85;20195;-77
2021/05/30 06:35:10;;;;;;;;;;;;;;;22.26;65.78;101804.17;1646874;85;20162;-77
2021/05/30 06:37:36;;;;;;;;;;;;;;;22.28;65.86;101807.59;1649219;85;20234;-77
2021/05/30 06:40:03;;;;;;;;;;;;;;;22.33;65.43;101813.97;1646171;85;20199;-77
2021/05/30 06:42:29;;;;;;;;;;;;;;;22.41;65.33;101813.98;1642426;85;20506;-77
2021/05/30 06:44:55;;;;;;;;;;;;;;;22.37;64.66;101808.45;1645654;85;21030;-76
2021/05/30 06:47:22;;;;;;;;;;;;;;;22.21;64.57;101819.33;1654672;85;20221;-77
2021/05/30 06:49:48;;;;;;;;;;;;;;;22.22;64.40;101819.72;1654892;85;20520;-77
2021/05/30 06:52:17;;;;;;;;;;;;;;;22.11;63.86;101812.77;1654993;85;20162;-77
2021/05/30 06:54:43;;;;;;;;;;;;;;;21.90;63.83;101813.68;1654441;85;20499;-77
2021/05/30 06:57:09;;;;;;;;;;;;;;;21.70;63.62;101804.05;1656700;85;20188;-77
2021/05/30 06:59:35;;;;;;;;;;;;;;;21.68;63.64;101811.16;1650893;85;20283;-77
2021/05/30 07:02:01;;;;;;;;;;;;;;;21.80;63.79;101808.85;1624512;85;20619;-76
2021/05/30 07:04:34;;;;;;;;;;;;;;;21.90;63.35;101813.22;1663325;85;20586;-77
2021/05/30 07:07:01;;;;;;;;;;;;;;;22.13;63.05;101812.23;1654464;85;20266;-77
2021/05/30 07:09:26;;;;;;;;;;;;;;;22.35;63.17;101805.06;1658017;85;20246;-77
2021/05/30 07:11:53;;;;;;;;;;;;;;;22.43;62.69;101808.17;1647411;85;20614;-77
2021/05/30 07:14:18;;;;;;;;;;;;;;;22.55;62.43;101809.84;1655818;85;20202;-77
2021/05/30 07:16:44;;;;;;;;;;;;;;;22.65;62.17;101810.66;1658002;85;20772;-77
2021/05/30 07:19:11;;;;;;;;;;;;;;;22.73;61.91;101815.57;1659729;85;20561;-77
2021/05/30 07:21:37;;;;;;;;;;;;;;;22.78;62.16;101817.09;1654274;86;20233;-77
2021/05/30 07:24:05;;;;;;;;;;;;;;;22.81;62.09;101819.20;1655324;86;20249;-77
2021/05/30 07:26:37;;;;;;;;;;;;;;;22.81;61.80;101825.33;1651751;86;20536;-77
2021/05/30 07:29:01;;;;;;;;;;;;;;;23.01;62.03;101823.87;1655962;86;20172;-77
2021/05/30 07:31:27;;;;;;;;;;;;;;;23.25;62.52;101828.88;1651112;86;20561;-77
2021/05/30 07:33:53;;;;;;;;;;;;;;;23.35;61.78;101823.06;1657780;85;20216;-77
2021/05/30 07:36:19;;;;;;;;;;;;;;;23.51;61.77;101823.12;1643872;86;20248;-76
2021/05/30 07:38:45;;;;;;;;;;;;;;;23.70;61.37;101829.67;1654066;85;20634;-76
2021/05/30 07:41:12;;;;;;;;;;;;;;;23.68;61.17;101823.15;1655381;85;20193;-75
2021/05/30 07:43:37;;;;;;;;;;;;;;;23.83;61.08;101819.33;1653672;86;20846;-75
2021/05/30 07:46:04;;;;;;;;;;;;;;;23.98;60.49;101829.91;1655910;86;20511;-75
2021/05/30 07:48:30;;;;;;;;;;;;;;;23.94;60.19;101828.37;1657612;86;20186;-75
2021/05/30 07:51:02;;;;;;;;;;;;;;;24.01;60.14;101826.25;1653639;85;20792;-76
2021/05/30 07:53:28;;;;;;;;;;;;;;;24.12;59.72;101825.22;1657106;85;20182;-74
2021/05/30 07:55:54;;;;;;;;;;;;;;;23.96;59.75;101827.82;1657590;85;20189;-75
2021/05/30 07:58:20;;;;;;;;;;;;;;;23.58;59.10;101831.15;1651115;85;20581;-75
2021/05/30 08:00:46;;;;;;;;;;;;;;;23.25;58.98;101832.84;1657320;85;20237;-75
2021/05/30 08:03:12;;;;;;;;;;;;;;;23.05;59.09;101828.07;1654522;85;21095;-75
2021/05/30 08:05:38;;;;;;;;;;;;;;;23.06;59.12;101828.92;1656289;86;20280;-75
2021/05/30 08:08:05;;;;;;;;;;;;;;;23.06;58.85;101828.92;1657913;85;20187;-76
2021/05/30 08:10:34;;;;;;;;;;;;;;;23.03;58.40;101833.03;1661789;85;20459;-75
2021/05/30 08:13:00;;;;;;;;;;;;;;;22.75;58.19;101831.71;1657402;85;20690;-75
2021/05/30 08:15:26;;;;;;;;;;;;;;;22.71;58.14;101837.20;1658844;85;20520;-75
2021/05/30 08:17:54;;;;;;;;;;;;;;;22.65;58.19;101834.85;1657083;85;21145;-76
2021/05/30 08:20:22;;;;;;;;;;;;;;;22.48;57.62;101836.95;1653709;85;20288;-75
2021/05/30 08:22:49;;;;;;;;;;;;;;;22.35;57.81;101836.69;1664371;85;20191;-76
2021/05/30 08:25:19;;;;;;;;;;;;;;;22.27;57.89;101835.33;1661595;85;20580;-77
2021/05/30 08:27:47;;;;;;;;;;;;;;;22.15;57.45;101838.05;1653118;85;20295;-77
2021/05/30 08:30:15;;;;;;;;;;;;;;;22.00;57.38;101837.37;1649727;86;20233;-77
2021/05/30 08:32:41;;;;;;;;;;;;;;;21.98;57.32;101843.17;1644124;85;20555;-76
2021/05/30 08:35:08;;;;;;;;;;;;;;;21.77;56.98;101846.31;1652020;85;20750;-76
2021/05/30 08:37:35;;;;;;;;;;;;;;;21.67;57.04;101844.53;1659290;85;20206;-76
2021/05/30 08:40:06;;;;;;;;;;;;;;;21.61;56.92;101844.78;1647266;85;20638;-77
2021/05/30 08:42:32;;;;;;;;;;;;;;;21.59;57.03;101841.82;1662497;82;321105;-77
2021/05/30 08:44:58;;;;;;;;;;;;;;;21.42;56.65;101843.38;1717259;81;20200;-76
2021/05/30 08:47:24;;;;;;;;;;;;;;;21.24;56.91;101844.63;1727694;81;20584;-77
2021/05/30 08:49:51;;;;;;;;;;;;;;;21.12;56.46;101843.31;1721434;81;20560;-77
2021/05/30 08:52:17;;;;;;;;;;;;;;;21.10;56.43;101841.20;1731401;83;20620;-77
2021/05/30 08:54:43;;;;;;;;;;;;;;;21.58;56.44;101848.01;1686582;83;20561;-76
2021/05/30 08:57:09;;;;;;;;;;;;;;;21.95;56.01;101839.36;1717654;81;20218;-76
2021/05/30 08:59:37;;;;;;;;;;;;;;;22.65;56.49;101839.66;1726790;81;20646;-76
2021/05/30 09:02:11;;;;;;;;;;;;;;;23.23;55.86;101846.58;1724820;81;20190;-77
2021/05/30 09:04:58;;;;;;;;;;;;;;;23.74;55.71;101845.75;1717628;81;20561;-76
2021/05/30 09:07:49;;;;;;;;;;;;;;;23.79;55.52;101847.69;1727723;82;20631;-76
2021/05/30 09:10:22;;;;;;;;;;;;;;;24.16;55.36;101841.30;1708198;81;20630;-77
2021/05/30 09:13:15;;;;;;;;;;;;;;;24.35;55.35;101843.84;1728102;81;20187;-76
2021/05/30 09:16:07;;;;;;;;;;;;;;;24.17;55.17;101839.05;1733072;81;20198;-77
2021/05/30 09:18:27;;;;;;;;;;;;;;;23.78;54.78;101845.12;1719842;81;20521;-76
2021/05/30 09:20:55;;;;;;;;;;;;;;;23.51;55.12;101844.70;1728649;81;20195;-77
2021/05/30 09:23:40;;;;;;;;;;;;;;;23.40;55.13;101845.24;1719223;81;21134;-77
2021/05/30 09:26:18;;;;;;;;;;;;;;;22.85;54.70;101844.50;1724478;81;20538;-77
2021/05/30 09:29:08;;;;;;;;;;;;;;;22.17;54.57;101836.20;1717865;81;20512;-77
2021/05/30 09:31:34;;;;;;;;;;;;;;;21.60;54.50;101837.81;1720448;81;20533;-77
2021/05/30 09:34:31;;;;;;;;;;;;;;;21.08;54.21;101829.89;1714621;81;20142;-77
2021/05/30 09:36:58;;;;;;;;;;;;;;;20.58;54.12;101831.90;1716368;81;20186;-77
2021/05/30 09:39:38;;;;;;;;;;;;;;;19.99;53.80;101834.49;1719030;81;20239;-77
2021/05/30 09:42:33;;;;;;;;;;;;;;;19.64;53.87;101830.50;1730515;81;20627;-76
2021/05/30 09:45:06;;;;;;;;;;;;;;;19.43;53.91;101833.81;1722473;81;20190;-76
2021/05/30 09:47:44;;;;;;;;;;;;;;;19.24;53.70;101828.77;1728555;81;20552;-77
2021/05/30 09:50:17;;;;;;;;;;;;;;;19.13;53.55;101829.14;1724463;81;20188;-77
2021/05/30 09:52:44;;;;;;;;;;;;;;;18.90;53.21;101833.80;1702959;81;20151;-77
2021/05/30 09:55:21;;;;;;;;;;;;;;;18.66;52.65;101831.50;1718991;81;20497;-78
2021/05/30 09:58:16;;;;;;;;;;;;;;;18.46;53.26;101830.75;1716145;83;20167;-77
2021/05/30 10:00:44;;;;;;;;;;;;;;;18.47;52.96;101830.30;1704152;81;20171;-77
2021/05/30 10:03:11;;;;;;;;;;;;;;;18.53;52.99;101823.11;1704415;81;20178;-76
2021/05/30 10:05:37;;;;;;;;;;;;;;;18.66;52.93;101822.78;1719130;81;20151;-76
2021/05/30 10:08:04;;;;;;;;;;;;;;;18.73;52.72;101829.07;1719010;81;20160;-76
2021/05/30 10:10:31;;;;;;;;;;;;;;;18.75;52.57;101833.81;1714037;81;20191;-78
2021/05/30 10:12:57;;;;;;;;;;;;;;;18.77;52.38;101831.14;1720674;81;20238;-76
2021/05/30 10:15:23;;;;;;;;;;;;;;;18.82;52.19;101834.03;1724891;81;20170;-77
2021/05/30 10:17:52;;;;;;;;;;;;;;;18.80;52.05;101827.98;1722059;81;20194;-77
2021/05/30 10:20:20;;;;;;;;;;;;;;;18.86;52.00;101837.42;1695854;83;20168;-77
2021/05/30 10:22:55;;;;;;;;;;;;;;;18.90;51.88;101838.18;1718636;81;20180;-76
2021/05/30 10:25:26;;;;;;;;;;;;;;;18.96;51.98;101837.54;1725038;83;20152;-77
2021/05/30 10:28:17;;;;;;;;;;;;;;;19.10;52.13;101834.03;1654491;86;20165;-77
2021/05/30 10:30:46;;;;;;;;;;;;;;;19.11;51.62;101837.52;1695781;82;20175;-77
2021/05/30 10:33:17;;;;;;;;;;;;;;;19.08;51.77;101840.23;1724408;81;20212;-77
2021/05/30 10:35:47;;;;;;;;;;;;;;;19.04;51.50;101840.78;1725908;81;20208;-77
2021/05/30 10:38:16;;;;;;;;;;;;;;;19.00;51.47;101848.34;1722797;83;20155;-77
2021/05/30 10:40:43;;;;;;;;;;;;;;;19.02;51.57;101839.11;1712278;81;20144;-77
2021/05/30 10:43:13;;;;;;;;;;;;;;;19.06;51.61;101846.83;1721455;81;20139;-77
2021/05/30 10:45:53;;;;;;;;;;;;;;;19.05;51.50;101840.33;1725855;81;20191;-77
2021/05/30 10:48:20;;;;;;;;;;;;;;;19.07;51.37;101840.69;1724199;81;20211;-77
2021/05/30 10:53:35;;;;;;;;;;;;;;;18.86;51.25;101829.55;1674317;82;20302;-77
2021/05/30 10:56:19;;;;;;;;;;;;;;;18.92;51.43;101826.74;1722073;81;20253;-77
2021/05/30 10:59:06;;;;;;;;;;;;;;;19.08;51.23;101821.42;1719878;82;20190;-77
2021/05/30 11:01:40;;;;;;;;;;;;;;;19.31;51.47;101825.89;1724356;82;20725;-77
2021/05/30 11:04:29;;;;;;;;;;;;;;;19.47;51.25;101817.06;1722927;81;20215;-76
2021/05/30 11:07:05;;;;;;;;;;;;;;;19.52;50.65;101818.25;1720916;81;20308;-78
2021/05/30 11:09:54;;;;;;;;;;;;;;;19.43;50.45;101818.07;1708379;83;20243;-77
2021/05/30 11:12:35;;;;;;;;;;;;;;;19.37;50.74;101824.83;1718373;82;20265;-78
2021/05/30 11:15:11;;;;;;;;;;;;;;;19.33;50.65;101821.45;1720165;82;21079;-78
2021/05/30 11:17:50;;;;;;;;;;;;;;;19.38;50.60;101822.16;1731627;81;20272;-77
2021/05/30 11:20:25;;;;;;;;;;;;;;;19.38;50.50;101823.92;1719940;81;20333;-77
2021/05/30 11:22:55;;;;;;;;;;;;;;;19.35;50.57;101821.41;1721226;82;20262;-77
2021/05/30 11:25:24;;;;;;;;;;;;;;;19.28;50.48;101827.30;1726820;81;20248;-77
2021/05/30 11:27:56;;;;;;;;;;;;;;;19.19;50.29;101828.95;1648124;86;20249;-77
2021/05/30 11:30:37;;;;;;;;;;;;;;;19.08;50.36;101829.29;1718946;82;142139;-76
2021/05/30 11:33:03;;;;;;;;;;;;;;;18.98;50.33;101829.63;1716903;83;20298;-76
2021/05/30 11:35:30;;;;;;;;;;;;;;;18.99;50.46;101824.34;1718482;82;20226;-77
2021/05/30 11:37:57;;;;;;;;;;;;;;;19.07;50.47;101823.64;1722227;82;20305;-79
2021/05/30 11:40:24;;;;;;;;;;;;;;;19.16;50.43;101820.72;1701712;83;20175;-76
2021/05/30 11:42:52;;;;;;;;;;;;;;;19.37;50.30;101818.28;1723306;81;20751;-76
2021/05/30 11:45:32;;;;;;;;;;;;;;;19.51;50.42;101814.77;1720675;81;20777;-76
2021/05/30 11:48:07;;;;;;;;;;;;;;;19.61;50.19;101818.80;1720247;81;20187;-76
2021/05/30 11:50:36;;;;;;;;;;;;;;;19.64;49.87;101820.01;1720157;81;20247;-77
2021/05/30 11:53:11;;;;;;;;;;;;;;;19.66;49.75;101826.06;1721956;81;20240;-76
2021/05/30 11:55:38;;;;;;;;;;;;;;;19.65;49.89;101830.05;1712426;81;20282;-76
2021/05/30 11:58:06;;;;;;;;;;;;;;;19.67;49.77;101827.77;1716785;82;20330;-76
2021/05/30 12:00:32;;;;;;;;;;;;;;;19.67;49.66;101824.30;1720820;82;20178;-76
2021/05/30 12:03:09;;;;;;;;;;;;;;;19.62;49.72;101831.01;1721572;81;20178;-77
2021/05/30 12:05:36;;;;;;;;;;;;;;;19.55;49.61;101827.33;1719916;82;20203;-78
2021/05/30 12:08:18;;;;;;;;;;;;;;;19.39;49.65;101828.27;1715711;81;20222;-77
2021/05/30 12:10:52;;;;;;;;;;;;;;;19.30;49.50;101822.86;1721123;81;20214;-76
2021/05/30 12:13:31;;;;;;;;;;;;;;;19.18;49.56;101824.16;1720487;82;20230;-76
2021/05/30 12:16:00;;;;;;;;;;;;;;;19.07;49.67;101822.33;1721283;81;20188;-76
2021/05/30 12:18:27;;;;;;;;;;;;;;;18.95;49.53;101817.48;1698224;82;20229;-76
2021/05/30 12:20:59;;;;;;;;;;;;;;;18.84;49.64;101822.19;1719014;82;20144;-77
2021/05/30 12:23:25;;;;;;;;;;;;;;;18.83;49.66;101817.86;1718589;82;20202;-77
2021/05/30 12:26:00;;;;;;;;;;;;;;;18.78;49.37;101819.30;1722186;81;20186;-76
2021/05/30 12:28:34;;;;;;;;;;;;;;;18.67;49.44;101814.88;1718155;82;20301;-76
2021/05/30 12:31:05;;;;;;;;;;;;;;;18.68;49.61;101812.66;1720864;81;20182;-76
2021/05/30 12:33:53;;;;;;;;;;;;;;;18.74;49.51;101811.59;1727893;81;20159;-76
2021/05/30 12:36:40;;;;;;;;;;;;;;;18.82;49.81;101803.03;1716277;82;20605;-75
2021/05/30 12:39:17;;;;;;;;;;;;;;;19.02;49.71;101802.41;1718204;83;20163;-76
2021/05/30 12:41:45;;;;;;;;;;;;;;;19.24;49.29;101793.36;1723119;83;20179;-74
2021/05/30 12:44:16;;;;;;;;;;;;;;;19.40;49.32;101791.48;1718993;83;20202;-74
2021/05/30 12:47:00;;;;;;;;;;;;;;;19.46;49.10;101793.91;1709952;81;20206;-74
2021/05/30 12:49:32;;;;;;;;;;;;;;;19.43;48.91;101787.45;1705705;82;20219;-74
2021/05/30 12:52:06;;;;;;;;;;;;;;;19.44;49.14;101793.10;1716087;81;20312;-74